Thunder radar more information blitzortung!


Radar de pluja more information rain snow radar


Visita la nostra xarxa de llocs de meteo:

Template documentation
and downloads

And another site



No particular awareness of the weather is required.    There are no Weather-warnings

Pagina Historial Weather Underground text

Diari Resum May 29, 2016 Unitats:  Mètric    Imperial   Tant
« Previous Dia
SegĂźent Dia »
Diari Setmana Mensual Anual Personalitzada
  Maxima: Minima: Media:
Temperatura: -17.8 °C -10.1 °C -7.8 °C
Punt de rosada: -17.8 °C -14.8 °C -13.6 °C
Humitat: Humidity % 28 % 50 %
Wind Speed: 0 km/h 0 km/h 8.9 km/h
RĂ fegues de vent: 0 km/h - -
Vent:- - ENE
Pression baro: 0 hPa 34256.2 hPa -
Precipitacions: 0 mm    
Historical Graphs
 
 
Dades de taula per May 29, 2016
Temps Temperatura Punt de rosada Pression baro Vent Wind Speed RĂ fegues de vent Humitat Rainfall Rate (Hourly)
-17.8 °C -17.8 °C 0 hPa Calm     Humidity % 0 mm
00:04 -9.2 °C -11 °C 34256.2 hPa ENE 9 km/h 9 km/h 81 % 0 mm
20:11 -3.1 °C -14.2 °C 34293.4 hPa NE 15 km/h   28 % 0 mm
20:16 -3.1 °C -14.2 °C 34293.4 hPa NE 3.1 km/h   28 % 0 mm
20:21 -5.3 °C -14.8 °C 34327.3 hPa SSW 17.9 km/h 17.9 km/h 33 % 0 mm
20:26 -5.4 °C -14.6 °C 34327.3 hPa ESE 6 km/h 6.3 km/h 34 % 0 mm
20:31 -5.4 °C -14.6 °C 34327.3 hPa ESE 6 km/h 6 km/h 34 % 0 mm
20:36 -5.5 °C -14.5 °C 34361.1 hPa West 6 km/h 6 km/h 35 % 0 mm
20:41 -5.6 °C -14.3 °C 34361.1 hPa ESE 15.6 km/h 15.6 km/h 36 % 0 mm
20:46 -5.8 °C -14.1 °C 34361.1 hPa NE 6 km/h 6 km/h 38 % 0 mm
20:51 -6.1 °C -14.1 °C 34361.1 hPa NNE 11.9 km/h 11.9 km/h 39 % 0 mm
20:56 -6.3 °C -13.9 °C 34361.1 hPa NNE 15.6 km/h 15.6 km/h 41 % 0 mm
21:01 -6.3 °C -13.9 °C 34361.1 hPa East 15 km/h 15 km/h 41 % 0 mm
21:06 -6.4 °C -13.8 °C 34361.1 hPa NNE 10.3 km/h 10.3 km/h 42 % 0 mm
21:11 -6.5 °C -13.7 °C 34361.1 hPa East 6.3 km/h 8 km/h 43 % 0 mm
21:16 -6.6 °C -13.8 °C 34361.1 hPa ESE 11.9 km/h 11.9 km/h 43 % 0 mm
21:20 -9.1 °C -13 °C 34428.8 hPa ENE 2.6 km/h 5.1 km/h 63 % 0 mm
21:26 -6.8 °C -13.7 °C 34395 hPa ENE 17.9 km/h 17.9 km/h 45 % 0 mm
21:30 -9.2 °C -13.1 °C 34428.8 hPa NE 2.6 km/h 5.1 km/h 63 % 0 mm
21:31 -6.9 °C -13.7 °C 34395 hPa ENE 23.8 km/h 23.8 km/h 45 % 0 mm
21:36 -7 °C -13.4 °C 34395 hPa NNE 17.9 km/h 17.9 km/h 47 % 0 mm
21:40 -9.2 °C -13.1 °C 34428.8 hPa Calm   5.1 km/h 63 % 0 mm
21:41 -7.1 °C -13.4 °C 34395 hPa NE 17.9 km/h 17.9 km/h 48 % 0 mm
21:46 -7.2 °C -13.4 °C 34395 hPa ENE 15.6 km/h 15.6 km/h 48 % 0 mm
21:50 -9.3 °C -13.1 °C 34428.8 hPa NE 2.6 km/h 5.1 km/h 64 % 0 mm
21:52 -7.3 °C -13.2 °C 34395 hPa East 14 km/h 14 km/h 50 % 0 mm
21:57 -7.3 °C -13.2 °C 34395 hPa ENE 20.9 km/h 20.9 km/h 50 % 0 mm
22:00 -9.3 °C -13.1 °C 34428.8 hPa NE 2.6 km/h 5.1 km/h 64 % 0 mm
22:02 -7.4 °C -13.2 °C 34395 hPa NNE 15 km/h 15 km/h 51 % 0 mm
22:07 -7.5 °C -13.2 °C 34428.8 hPa ESE 11.9 km/h 11.9 km/h 51 % 0 mm
22:10 -9.4 °C -13.3 °C 34428.8 hPa Calm   2.6 km/h 63 % 0 mm
22:12 -7.6 °C -13.2 °C 34428.8 hPa NNE 20.9 km/h 20.9 km/h 52 % 0 mm
22:18 -7.6 °C -13.2 °C 34395 hPa ENE 7.6 km/h 10.3 km/h 52 % 0 mm
22:20 -9.5 °C -13.2 °C 34428.8 hPa NNW 2.6 km/h 5.1 km/h 64 % 0 mm
22:23 -7.7 °C -13.2 °C 34395 hPa ENE 11.9 km/h 11.9 km/h 52 % 0 mm
22:30 -9.5 °C -13.2 °C 34428.8 hPa Calm   5.1 km/h 64 % 0 mm
22:33 -7.8 °C -13.2 °C 34395 hPa East 9 km/h 9 km/h 53 % 0 mm
22:38 -7.8 °C -13.2 °C 34395 hPa ENE 9.3 km/h 9.3 km/h 53 % 0 mm
22:40 -9.6 °C -13.3 °C 34395 hPa ENE 2.6 km/h 5.1 km/h 64 % 0 mm
22:43 -7.9 °C -13.3 °C 34395 hPa East 11.9 km/h 11.9 km/h 53 % 0 mm
22:49 -7.9 °C -13.3 °C 34428.8 hPa East 9 km/h 9 km/h 53 % 0 mm
22:50 -9.7 °C -13.3 °C 34395 hPa Calm   5.1 km/h 65 % 0 mm
22:54 -7.9 °C -13.2 °C 34428.8 hPa ENE 9 km/h 9 km/h 54 % 0 mm
22:59 -8 °C -13.2 °C 34428.8 hPa East 9 km/h 9 km/h 54 % 0 mm
23:00 -9.8 °C -13.4 °C 34395 hPa ENE 2.6 km/h 5.1 km/h 65 % 0 mm
23:10 -9.8 °C -13.6 °C 34395 hPa NNE 2.6 km/h 5.1 km/h 64 % 0 mm
23:20 -9.8 °C -13.4 °C 34395 hPa NNE 5.1 km/h 5.1 km/h 65 % 0 mm
23:40 -10 °C -13.5 °C 34395 hPa North 2.6 km/h 5.1 km/h 66 % 0 mm
23:50 -10.1 °C -13.6 °C 34395 hPa Calm   5.1 km/h 66 % 0 mm
Meteo Sesrovires
Elogis d' Weather Underground - 2.75 mb

Guio original per  Jim McMurry - jmcmurry@mwt.net Adaptat per a la plantilla per  Wim van der Kuil - Leuven-Template.eu

Trobareu la nostra informacio del temps tambe a:

Weather Underground

AWEKAS